Time;durP1;ratioP1;P1;durP2;ratioP2;P2;SDS_P1;SDS_P2;PMS_P1;PMS_P2;Temp;Humidity;BMP_temperature;BMP_pressure;BME280_temperature;BME280_humidity;BME280_pressure;Samples;Min_cycle;Max_cycle;Signal;HPM_P1;HPM_P2
2022/01/31 00:00:17;;;;;;;12.38;2.80;;;;;;;4.57;57.74;99440.56;5053691;28;20484;-51
2022/01/31 00:02:43;;;;;;;10.80;3.17;;;;;;;4.50;57.64;99426.44;5053782;28;20021;-50
2022/01/31 00:05:09;;;;;;;8.00;2.75;;;;;;;4.57;57.09;99445.00;5054087;28;20550;-52
2022/01/31 00:07:34;;;;;;;8.40;3.10;;;;;;;4.77;56.34;99432.22;5053502;28;20024;-52
2022/01/31 00:10:05;;;;;;;11.10;2.80;;;;;;;4.84;55.89;99427.91;5053467;28;20433;-51
2022/01/31 00:12:34;;;;;;;15.68;3.00;;;;;;;4.69;55.83;99419.91;5053722;28;20033;-48
2022/01/31 00:15:03;;;;;;;15.13;3.25;;;;;;;4.84;55.19;99420.00;5053982;28;20104;-52
2022/01/31 00:17:28;;;;;;;8.75;2.67;;;;;;;4.93;54.99;99426.03;5053269;28;20461;-48
2022/01/31 00:19:53;;;;;;;12.00;2.88;;;;;;;4.71;55.13;99412.66;5053680;28;20025;-48
2022/01/31 00:22:19;;;;;;;11.77;3.05;;;;;;;4.72;55.35;99422.19;5053535;28;20421;-49
2022/01/31 00:24:45;;;;;;;11.27;2.70;;;;;;;4.83;55.21;99420.97;5053623;28;20009;-51
2022/01/31 00:27:10;;;;;;;12.02;2.90;;;;;;;4.93;54.87;99412.84;5053391;28;20477;-50
2022/01/31 00:29:36;;;;;;;10.48;2.80;;;;;;;5.08;54.53;99419.00;5053036;28;20493;-48
2022/01/31 00:32:01;;;;;;;11.95;3.13;;;;;;;4.97;54.71;99416.75;5053638;28;20067;-48
2022/01/31 00:34:27;;;;;;;9.23;3.00;;;;;;;4.93;55.01;99416.31;5053426;28;20462;-49
2022/01/31 00:36:54;;;;;;;6.32;2.42;;;;;;;4.82;54.55;99414.88;5053544;28;20024;-51
2022/01/31 00:39:19;;;;;;;12.75;3.22;;;;;;;5.24;53.67;99416.25;5053305;28;20036;-50
2022/01/31 00:41:45;;;;;;;10.38;2.85;;;;;;;5.29;52.96;99413.06;5053197;28;20412;-49
2022/01/31 00:44:17;;;;;;;10.65;2.97;;;;;;;5.01;53.66;99420.72;5052690;28;20232;-48
2022/01/31 00:46:49;;;;;;;9.23;2.65;;;;;;;4.89;53.80;99428.19;5051510;28;20079;-51
2022/01/31 00:49:27;;;;;;;11.43;2.63;;;;;;;4.83;53.91;99426.25;5052488;28;20028;-51
2022/01/31 00:51:54;;;;;;;9.55;2.75;;;;;;;4.90;53.92;99429.84;5053174;28;20113;-52
2022/01/31 00:54:20;;;;;;;16.10;3.22;;;;;;;4.82;54.13;99424.63;5052864;28;20481;-52
2022/01/31 00:56:45;;;;;;;16.92;3.30;;;;;;;4.77;53.88;99414.59;5053167;28;20074;-48
2022/01/31 00:59:11;;;;;;;36.65;4.25;;;;;;;4.93;53.54;99412.84;5052508;28;20400;-48
2022/01/31 01:01:36;;;;;;;12.95;2.88;;;;;;;4.88;53.26;99408.09;5052767;28;20030;-48
2022/01/31 01:04:02;;;;;;;12.27;2.83;;;;;;;4.80;53.59;99405.53;5052123;28;20021;-49
2022/01/31 01:06:27;;;;;;;14.77;2.80;;;;;;;4.80;53.85;99408.97;5052814;28;20059;-48
2022/01/31 01:08:53;;;;;;;10.98;2.95;;;;;;;4.84;53.14;99407.63;5052520;28;20033;-49
2022/01/31 01:11:18;;;;;;;12.38;2.95;;;;;;;4.78;53.40;99410.97;5052340;28;20045;-48
2022/01/31 01:13:44;;;;;;;16.40;2.78;;;;;;;4.89;53.52;99412.38;5051101;28;20078;-49
2022/01/31 01:16:09;;;;;;;15.15;3.05;;;;;;;4.73;53.59;99410.66;5052459;28;20079;-50
2022/01/31 01:18:35;;;;;;;10.77;2.83;;;;;;;4.69;54.05;99410.19;5052530;28;20028;-49
2022/01/31 01:21:00;;;;;;;15.50;3.00;;;;;;;4.49;54.52;99398.41;5052324;28;20025;-52
2022/01/31 01:23:26;;;;;;;7.65;2.90;;;;;;;4.59;53.74;99396.41;5052218;28;20021;-51
2022/01/31 01:25:52;;;;;;;9.38;2.97;;;;;;;4.58;53.58;99409.75;5052478;28;20036;-51
2022/01/31 01:28:17;;;;;;;9.65;2.60;;;;;;;4.49;53.64;99401.91;5052034;28;20039;-50
2022/01/31 01:30:42;;;;;;;8.25;2.60;;;;;;;4.61;52.83;99407.59;5052074;28;20025;-51
2022/01/31 01:33:18;;;;;;;13.52;2.60;;;;;;;4.54;52.48;99417.19;5052054;28;20028;-49
2022/01/31 01:35:44;;;;;;;5.97;2.47;;;;;;;4.64;51.68;99407.22;5051935;28;20104;-51
2022/01/31 01:38:10;;;;;;;8.00;2.72;;;;;;;4.76;51.46;99415.59;5050876;28;20036;-48
2022/01/31 01:40:37;;;;;;;5.72;2.10;;;;;;;4.71;51.27;99415.28;5051935;28;20021;-50
2022/01/31 01:43:03;;;;;;;12.75;2.60;;;;;;;4.90;50.28;99412.19;5052101;28;20060;-48
2022/01/31 01:45:29;;;;;;;9.35;2.80;;;;;;;4.91;50.04;99407.72;5050770;28;20074;-48
2022/01/31 01:47:54;;;;;;;12.32;2.95;;;;;;;5.06;49.83;99413.91;5052205;28;20480;-50
2022/01/31 01:50:19;;;;;;;8.52;2.10;;;;;;;4.74;50.25;99411.47;5051799;28;20401;-48
2022/01/31 01:52:45;;;;;;;8.10;2.20;;;;;;;4.79;50.04;99398.59;5051929;28;20094;-51
2022/01/31 01:55:10;;;;;;;10.45;2.47;;;;;;;4.81;49.82;99391.34;5034138;28;20032;-52
2022/01/31 01:57:36;;;;;;;8.32;2.42;;;;;;;4.79;49.84;99409.97;5051668;28;20020;-51
2022/01/31 02:00:01;;;;;;;8.35;2.55;;;;;;;4.76;49.56;99401.56;5051437;28;20028;-51
2022/01/31 02:02:27;;;;;;;6.97;1.83;;;;;;;4.80;49.46;99394.97;5051769;28;20032;-52
2022/01/31 02:04:52;;;;;;;13.55;2.40;;;;;;;4.88;49.03;99398.38;5051536;28;20028;-50
2022/01/31 02:07:19;;;;;;;12.18;2.60;;;;;;;4.80;49.20;99394.97;5051650;28;20024;-50
2022/01/31 02:09:52;;;;;;;10.55;2.33;;;;;;;4.74;49.12;99411.47;5049989;28;20044;-49
2022/01/31 02:12:17;;;;;;;7.78;2.13;;;;;;;4.66;49.13;99405.28;5051875;28;20048;-48
2022/01/31 02:14:43;;;;;;;12.13;2.40;;;;;;;4.82;48.86;99412.25;5050506;28;20049;-50
2022/01/31 02:17:08;;;;;;;18.23;2.80;;;;;;;4.91;48.55;99420.91;5051332;28;20479;-50
2022/01/31 02:19:34;;;;;;;11.57;2.40;;;;;;;4.98;48.29;99421.06;5051500;28;20043;-49
2022/01/31 02:21:59;;;;;;;9.65;2.50;;;;;;;5.03;48.06;99409.00;5051293;28;20515;-50
2022/01/31 02:24:25;;;;;;;10.20;2.75;;;;;;;4.72;48.59;99395.81;5051442;28;20393;-47
2022/01/31 02:26:50;;;;;;;10.20;2.60;;;;;;;4.84;48.76;99414.72;5050820;28;20082;-49
2022/01/31 02:29:16;;;;;;;8.30;2.30;;;;;;;4.93;48.09;99404.94;5051123;28;20021;-48
2022/01/31 02:31:45;;;;;;;4.47;2.40;;;;;;;4.86;47.60;99396.91;5051048;28;20025;-48
2022/01/31 02:34:10;;;;;;;9.05;2.30;;;;;;;4.88;47.30;99397.56;5050032;28;20024;-47
2022/01/31 02:36:36;;;;;;;10.55;2.25;;;;;;;4.88;47.35;99402.81;5051144;28;20029;-48
2022/01/31 02:39:02;;;;;;;9.85;2.70;;;;;;;4.82;47.50;99403.53;5050752;28;20025;-48
2022/01/31 02:41:29;;;;;;;8.77;2.60;;;;;;;4.79;47.82;99367.78;5050905;28;20477;-48
2022/01/31 02:43:54;;;;;;;11.23;2.20;;;;;;;4.78;48.22;99410.13;5050680;28;20461;-48
2022/01/31 02:46:24;;;;;;;13.35;2.60;;;;;;;4.84;48.04;99410.25;5050925;28;20032;-50
2022/01/31 02:48:51;;;;;;;12.30;2.72;;;;;;;4.71;48.26;99412.66;5051173;28;20068;-48
2022/01/31 02:51:21;;;;;;;7.68;2.15;;;;;;;4.62;48.69;99411.03;5050766;28;20495;-48
2022/01/31 02:53:47;;;;;;;11.80;2.45;;;;;;;4.71;48.82;99396.84;5050661;28;20031;-49
2022/01/31 02:56:12;;;;;;;8.55;2.00;;;;;;;4.77;48.81;99427.75;5050671;28;20021;-47
2022/01/31 02:58:38;;;;;;;5.65;2.45;;;;;;;4.53;49.50;99418.16;5050387;28;20378;-49
2022/01/31 03:01:03;;;;;;;8.07;2.60;;;;;;;4.68;48.98;99416.47;5050882;28;20067;-48
2022/01/31 03:03:29;;;;;;;8.15;2.40;;;;;;;4.55;49.56;99407.44;5049356;28;20036;-49
2022/01/31 03:05:54;;;;;;;12.20;2.30;;;;;;;4.42;50.03;99432.56;5050580;28;20032;-48
2022/01/31 03:08:20;;;;;;;19.75;2.28;;;;;;;4.50;49.68;99429.06;5050679;28;20366;-48
2022/01/31 03:10:45;;;;;;;7.80;2.10;;;;;;;4.45;49.73;99416.38;5050203;28;20582;-49
2022/01/31 03:13:11;;;;;;;8.20;2.22;;;;;;;4.57;49.44;99426.53;5050241;28;20033;-49
2022/01/31 03:15:36;;;;;;;11.38;2.50;;;;;;;4.59;49.18;99435.94;5050565;28;20242;-49
2022/01/31 03:18:04;;;;;;;9.90;2.53;;;;;;;4.59;49.25;99435.09;5050186;28;20025;-49
2022/01/31 03:20:29;;;;;;;11.30;2.38;;;;;;;4.59;48.98;99406.09;5050414;28;20029;-50
2022/01/31 03:22:55;;;;;;;7.03;2.28;;;;;;;4.57;49.21;99429.19;5050463;28;20024;-50
2022/01/31 03:25:20;;;;;;;6.05;2.10;;;;;;;4.67;48.78;99430.63;5050749;28;20021;-51
2022/01/31 03:27:46;;;;;;;11.13;1.98;;;;;;;4.54;49.15;99442.72;5054624;28;20028;-50
2022/01/31 03:30:19;;;;;;;8.23;2.05;;;;;;;4.64;49.01;99433.59;5054193;28;20039;-49
2022/01/31 03:32:45;;;;;;;12.15;2.17;;;;;;;4.77;48.99;99448.03;5054621;28;20025;-51
2022/01/31 03:35:11;;;;;;;5.55;1.98;;;;;;;4.55;49.69;99441.72;5054146;28;20021;-51
2022/01/31 03:37:36;;;;;;;9.75;2.00;;;;;;;4.58;49.77;99430.84;5054527;28;20049;-49
2022/01/31 03:40:03;;;;;;;6.65;1.95;;;;;;;4.59;50.39;99424.56;5054426;28;20102;-48
2022/01/31 03:42:28;;;;;;;8.07;2.20;;;;;;;4.52;50.73;99431.53;5054144;28;20021;-51
2022/01/31 03:44:54;;;;;;;5.25;2.05;;;;;;;4.58;51.12;99429.00;5054233;28;20217;-50
2022/01/31 03:47:22;;;;;;;8.70;2.42;;;;;;;4.49;51.79;99449.34;5054089;28;20032;-51
2022/01/31 03:49:48;;;;;;;7.53;2.17;;;;;;;4.36;52.13;99449.06;5053950;28;20086;-51
2022/01/31 03:52:14;;;;;;;6.88;2.08;;;;;;;4.34;52.52;99439.66;5054098;28;20503;-49
2022/01/31 03:54:40;;;;;;;7.25;2.33;;;;;;;4.28;52.64;99455.19;5053989;28;20043;-51
2022/01/31 03:57:05;;;;;;;6.07;1.80;;;;;;;4.21;52.72;99467.38;5053950;28;20113;-49
2022/01/31 03:59:31;;;;;;;6.03;2.15;;;;;;;4.22;52.81;99461.09;5053823;28;20060;-52
2022/01/31 04:01:56;;;;;;;6.50;2.30;;;;;;;4.19;52.82;99493.06;5053852;28;20025;-50
2022/01/31 04:04:21;;;;;;;6.82;1.88;;;;;;;4.20;52.95;99485.97;5054076;28;20469;-50
2022/01/31 04:06:47;;;;;;;11.38;2.47;;;;;;;4.27;52.48;99486.94;5053782;28;20020;-50
2022/01/31 04:09:12;;;;;;;6.93;2.20;;;;;;;4.47;51.87;99497.91;5053565;28;20025;-50
2022/01/31 04:11:39;;;;;;;8.88;2.55;;;;;;;4.23;52.47;99512.00;5053636;28;20029;-49
2022/01/31 04:14:05;;;;;;;10.75;4.00;;;;;;;4.28;52.60;99515.78;5053579;28;20401;-48
2022/01/31 04:16:30;;;;;;;13.65;5.28;;;;;;;4.29;52.72;99508.69;5053674;28;20481;-51
2022/01/31 04:18:56;;;;;;;20.35;8.00;;;;;;;4.49;51.74;99509.09;5053696;28;20017;-51
2022/01/31 04:21:21;;;;;;;5.43;2.33;;;;;;;4.41;51.75;99514.41;5053762;28;20024;-49
2022/01/31 04:23:50;;;;;;;4.97;1.90;;;;;;;4.44;51.68;99511.44;5053650;28;20017;-51
2022/01/31 04:26:15;;;;;;;13.82;2.50;;;;;;;4.46;51.61;99517.38;5053440;28;20527;-50
2022/01/31 04:28:44;;;;;;;5.70;2.00;;;;;;;4.11;51.95;99512.34;5052089;28;20086;-49
2022/01/31 04:33:38;;;;;;;7.75;2.28;;;;;;;4.37;52.09;99528.91;5053549;28;20107;-52
2022/01/31 04:36:04;;;;;;;7.85;2.10;;;;;;;4.28;51.75;99521.03;5053577;28;20109;-49
2022/01/31 04:38:30;;;;;;;3.47;2.00;;;;;;;4.35;51.68;99523.00;5052294;28;20025;-49
2022/01/31 04:40:55;;;;;;;8.63;2.70;;;;;;;4.11;52.06;99512.34;5052935;28;20448;-51
2022/01/31 04:43:21;;;;;;;5.13;2.10;;;;;;;4.00;52.02;99520.59;5053379;28;20021;-50
2022/01/31 04:45:47;;;;;;;8.38;2.72;;;;;;;4.08;51.92;99519.75;5053453;28;20013;-50
2022/01/31 04:48:16;;;;;;;6.68;2.60;;;;;;;4.04;52.29;99511.34;5053222;28;20021;-51
2022/01/31 04:50:42;;;;;;;5.18;1.98;;;;;;;4.16;51.70;99519.72;5053237;28;20021;-50
2022/01/31 04:53:08;;;;;;;9.73;2.10;;;;;;;4.00;51.95;99517.09;5053303;28;20061;-51
2022/01/31 04:55:35;;;;;;;7.70;2.17;;;;;;;4.04;51.54;99526.34;5053087;28;20032;-47
2022/01/31 04:58:00;;;;;;;6.38;2.28;;;;;;;4.06;51.65;99521.72;5052981;28;20033;-48
2022/01/31 05:00:26;;;;;;;12.32;2.13;;;;;;;4.15;51.35;99512.81;5052958;28;20043;-48
2022/01/31 05:02:51;;;;;;;5.00;1.70;;;;;;;3.95;51.82;99514.16;5052821;28;20031;-49
2022/01/31 05:05:17;;;;;;;7.88;1.90;;;;;;;4.19;51.19;99521.19;5053113;28;20021;-50
2022/01/31 05:07:42;;;;;;;7.45;2.00;;;;;;;4.21;51.13;99546.41;5053179;28;20103;-50
2022/01/31 05:10:08;;;;;;;6.00;2.00;;;;;;;4.26;50.85;99541.44;5052546;28;20067;-49
2022/01/31 05:12:34;;;;;;;4.32;1.83;;;;;;;4.34;50.97;99551.16;5053081;28;20451;-52
2022/01/31 05:14:59;;;;;;;4.60;2.20;;;;;;;4.23;51.08;99556.78;5052743;28;20024;-50
2022/01/31 05:17:25;;;;;;;5.78;2.10;;;;;;;4.18;51.27;99559.88;5052557;28;20040;-50
2022/01/31 05:19:50;;;;;;;8.05;2.58;;;;;;;4.44;50.51;99569.41;5052511;28;20024;-49
2022/01/31 05:22:16;;;;;;;7.60;2.60;;;;;;;4.46;50.96;99573.50;5052512;28;20409;-52
2022/01/31 05:24:41;;;;;;;6.80;2.30;;;;;;;4.25;51.49;99581.94;5052525;28;20021;-52
2022/01/31 05:27:07;;;;;;;7.38;2.13;;;;;;;4.03;51.81;99572.91;5052312;28;20033;-48
2022/01/31 05:29:32;;;;;;;6.95;2.30;;;;;;;4.25;51.20;99566.16;5036367;28;20458;-48
2022/01/31 05:31:57;;;;;;;10.85;2.47;;;;;;;4.30;50.85;99566.47;5046357;28;20405;-48
2022/01/31 05:34:24;;;;;;;7.72;2.38;;;;;;;4.43;50.97;99579.09;5048855;28;20094;-49
2022/01/31 05:36:54;;;;;;;13.68;6.00;;;;;;;4.48;50.28;99576.00;5052241;28;20021;-50
2022/01/31 05:39:21;;;;;;;9.30;2.40;;;;;;;4.35;50.44;99570.41;5052693;28;20104;-48
2022/01/31 05:41:46;;;;;;;14.18;6.28;;;;;;;4.27;50.86;99569.44;5052923;28;20059;-51
2022/01/31 05:44:11;;;;;;;10.88;2.70;;;;;;;4.24;50.94;99580.28;5051938;28;20021;-49
2022/01/31 05:46:37;;;;;;;13.90;2.90;;;;;;;4.45;50.28;99578.94;5052310;28;20029;-49
2022/01/31 05:49:02;;;;;;;12.63;2.85;;;;;;;4.11;50.66;99543.09;5051835;28;20028;-48
2022/01/31 05:51:28;;;;;;;7.55;2.35;;;;;;;4.49;50.03;99574.97;5052007;28;20021;-50
2022/01/31 05:53:53;;;;;;;14.57;3.38;;;;;;;4.64;49.51;99578.56;5051593;28;20036;-50
2022/01/31 05:56:19;;;;;;;7.22;2.53;;;;;;;4.22;49.98;99590.16;5050032;28;20434;-47
2022/01/31 05:58:44;;;;;;;10.35;2.83;;;;;;;4.67;49.41;99575.59;5049952;28;20033;-48
2022/01/31 06:01:10;;;;;;;8.93;2.30;;;;;;;4.53;49.55;99583.38;5050487;28;20021;-48
2022/01/31 06:03:37;;;;;;;7.78;2.40;;;;;;;4.71;48.90;99578.72;5050501;28;20033;-47
2022/01/31 06:06:03;;;;;;;6.07;2.38;;;;;;;4.90;48.59;99590.69;5051081;28;20103;-48
2022/01/31 06:08:29;;;;;;;6.47;2.55;;;;;;;5.04;48.08;99591.78;5050414;28;20469;-51
2022/01/31 06:10:54;;;;;;;6.97;2.40;;;;;;;4.87;48.70;99598.94;5051330;28;20061;-37
2022/01/31 06:13:30;;;;;;;35.33;13.60;;;;;;;5.18;47.85;99590.25;5051399;28;20040;-37
2022/01/31 06:15:55;;;;;;;8.32;3.15;;;;;;;5.42;47.94;99610.41;5051693;28;20035;-38
2022/01/31 06:18:20;;;;;;;10.55;3.22;;;;;;;5.87;46.08;99599.06;5051417;28;20029;-40
2022/01/31 06:20:46;;;;;;;8.70;2.50;;;;;;;6.15;45.20;99606.50;5050294;28;20025;-40
2022/01/31 06:23:12;;;;;;;8.25;2.60;;;;;;;5.84;45.93;99609.97;5051503;28;20408;-38
2022/01/31 06:25:37;;;;;;;7.20;2.63;;;;;;;5.85;45.90;99603.72;5051058;28;20025;-37
2022/01/31 06:28:05;;;;;;;6.70;2.45;;;;;;;5.86;45.17;99607.16;5051165;28;20071;-38
2022/01/31 06:30:30;;;;;;;11.40;2.60;;;;;;;6.25;44.49;99614.19;5051346;28;20036;-37
2022/01/31 06:32:56;;;;;;;7.20;2.40;;;;;;;6.76;43.96;99611.69;5050903;28;20029;-37
2022/01/31 06:35:21;;;;;;;10.68;2.83;;;;;;;6.90;42.46;99606.59;5050111;28;20025;-38
2022/01/31 06:37:47;;;;;;;9.93;4.65;;;;;;;6.89;42.96;99618.16;5051131;28;20474;-38
2022/01/31 06:40:12;;;;;;;10.75;4.10;;;;;;;7.20;41.87;99605.56;5051094;28;20358;-37
2022/01/31 06:42:38;;;;;;;9.77;3.63;;;;;;;7.26;41.32;99621.72;5051010;28;20412;-38
2022/01/31 06:45:04;;;;;;;10.68;2.60;;;;;;;7.16;41.33;99611.41;5051219;28;20025;-37
2022/01/31 06:47:29;;;;;;;9.77;3.22;;;;;;;8.16;39.84;99629.19;5050969;28;20369;-37
2022/01/31 06:49:55;;;;;;;17.67;7.18;;;;;;;8.57;39.05;99619.75;5050992;28;20025;-38
2022/01/31 06:52:20;;;;;;;9.20;3.30;;;;;;;8.09;39.67;99630.13;5051060;28;20033;-37
2022/01/31 06:54:50;;;;;;;10.40;2.70;;;;;;;8.26;40.28;99628.03;5050610;28;20400;-38
2022/01/31 06:57:17;;;;;;;8.70;3.20;;;;;;;8.25;39.23;99637.03;5050697;28;20154;-38
2022/01/31 06:59:42;;;;;;;7.45;3.30;;;;;;;8.51;38.48;99629.31;5050301;28;20492;-37
2022/01/31 07:02:08;;;;;;;8.05;2.63;;;;;;;8.90;37.76;99619.97;5050523;28;20053;-37
2022/01/31 07:04:33;;;;;;;8.95;2.53;;;;;;;8.60;37.50;99622.00;5050684;28;20021;-38
2022/01/31 07:06:58;;;;;;;8.73;2.85;;;;;;;8.68;37.90;99624.53;5050982;28;20037;-37
2022/01/31 07:09:24;;;;;;;9.57;3.78;;;;;;;8.47;37.87;99616.63;5049307;28;20354;-37
2022/01/31 07:11:52;;;;;;;9.50;3.95;;;;;;;8.53;37.98;99615.84;5050670;28;20104;-37
2022/01/31 07:14:30;;;;;;;14.18;4.90;;;;;;;9.34;36.43;99618.75;5050531;28;20071;-37
2022/01/31 07:17:03;;;;;;;4.57;2.58;;;;;;;8.84;37.32;99620.75;5050702;28;20377;-37
2022/01/31 07:19:31;;;;;;;14.20;6.13;;;;;;;9.09;36.92;99617.63;5050737;28;20119;-36
2022/01/31 07:21:57;;;;;;;8.30;3.30;;;;;;;8.93;37.38;99608.13;5050749;28;20029;-37
2022/01/31 07:24:42;;;;;;;7.25;2.92;;;;;;;9.42;36.67;99603.66;5050290;28;20044;-37
2022/01/31 07:27:08;;;;;;;8.50;3.60;;;;;;;9.80;36.14;99598.63;5050753;28;20032;-37
2022/01/31 07:29:33;;;;;;;9.15;3.38;;;;;;;9.58;36.46;99587.38;5050462;28;20020;-37
2022/01/31 07:31:59;;;;;;;10.13;3.47;;;;;;;9.91;35.69;99576.78;5050423;28;20082;-37
2022/01/31 07:34:25;;;;;;;8.50;3.00;;;;;;;9.35;36.83;99575.25;5049119;28;20029;-37
2022/01/31 07:36:50;;;;;;;10.68;3.05;;;;;;;9.35;36.87;99580.56;5050166;28;20465;-39
2022/01/31 07:39:16;;;;;;;7.80;2.83;;;;;;;9.49;36.35;99569.97;5050537;28;20052;-38
2022/01/31 07:41:42;;;;;;;9.18;2.83;;;;;;;9.30;36.54;99564.41;5050544;28;20546;-37
2022/01/31 07:44:08;;;;;;;9.88;2.83;;;;;;;9.10;36.36;99559.03;5050432;28;20051;-36
2022/01/31 07:46:33;;;;;;;9.63;2.80;;;;;;;9.74;36.08;99560.41;5050153;28;20029;-37
2022/01/31 07:48:59;;;;;;;12.50;2.90;;;;;;;9.98;34.71;99561.66;5050116;28;20148;-38
2022/01/31 07:51:24;;;;;;;15.55;3.30;;;;;;;9.39;35.99;99559.72;5050357;28;20032;-38
2022/01/31 07:53:50;;;;;;;8.00;2.63;;;;;;;9.16;36.40;99563.53;5050483;28;20413;-37
2022/01/31 07:56:17;;;;;;;9.95;2.55;;;;;;;9.07;36.17;99555.94;5050125;28;20040;-38
2022/01/31 07:58:42;;;;;;;6.78;2.60;;;;;;;9.16;35.88;99557.41;5050238;28;20036;-36
2022/01/31 08:01:08;;;;;;;7.55;2.45;;;;;;;9.07;35.96;99551.44;5050328;28;20248;-38
2022/01/31 08:03:34;;;;;;;5.32;2.35;;;;;;;9.38;35.43;99537.66;5050294;28;20041;-37
2022/01/31 08:06:00;;;;;;;7.03;2.50;;;;;;;9.62;35.25;99542.63;5050197;28;20024;-39
2022/01/31 08:08:28;;;;;;;8.63;2.97;;;;;;;9.35;34.74;99532.75;5049783;28;20036;-38
2022/01/31 08:10:54;;;;;;;10.77;2.50;;;;;;;9.35;34.61;99524.78;5049386;28;20519;-37
2022/01/31 08:13:20;;;;;;;6.60;2.47;;;;;;;9.17;35.50;99527.19;5053317;28;20033;-37
2022/01/31 08:16:01;;;;;;;8.27;2.08;;;;;;;9.12;34.72;99538.41;5053559;28;20029;-39
2022/01/31 08:18:26;;;;;;;9.15;2.30;;;;;;;9.17;34.82;99524.53;5053492;28;20032;-37
2022/01/31 08:20:52;;;;;;;4.78;1.85;;;;;;;9.35;34.63;99527.44;5053789;28;20539;-39
2022/01/31 08:23:17;;;;;;;11.45;2.70;;;;;;;9.58;34.09;99528.91;5053583;28;20070;-37
2022/01/31 08:25:47;;;;;;;7.65;2.58;;;;;;;9.34;34.50;99532.94;5053724;28;20059;-38
2022/01/31 08:28:13;;;;;;;6.00;2.25;;;;;;;9.14;34.49;99539.03;5053737;28;20411;-38
2022/01/31 08:33:25;;;;;;;8.73;2.33;;;;;;;10.02;32.96;99546.13;5053451;28;20029;-37
2022/01/31 08:35:50;;;;;;;7.40;1.75;;;;;;;9.52;33.47;99548.31;5053315;28;20523;-38
2022/01/31 08:38:17;;;;;;;9.90;2.00;;;;;;;9.62;33.42;99554.06;5053240;28;20029;-37
2022/01/31 08:40:43;;;;;;;7.20;2.75;;;;;;;9.29;34.05;99569.91;5053246;28;20025;-37
2022/01/31 08:43:08;;;;;;;6.28;1.83;;;;;;;9.72;33.56;99562.44;5053134;28;20104;-38
2022/01/31 08:45:34;;;;;;;7.07;3.05;;;;;;;10.10;32.99;99566.38;5053450;28;20021;-38
2022/01/31 08:48:01;;;;;;;8.65;2.00;;;;;;;9.70;32.89;99535.25;5052965;28;20025;-37
2022/01/31 08:50:26;;;;;;;5.90;1.98;;;;;;;9.68;32.34;99545.28;5052697;28;20021;-37
2022/01/31 08:52:52;;;;;;;9.57;3.92;;;;;;;10.22;32.33;99535.47;5051971;28;20090;-38
2022/01/31 08:55:20;;;;;;;6.03;2.25;;;;;;;10.38;31.27;99534.28;5052153;28;20029;-38
2022/01/31 08:57:47;;;;;;;8.13;2.03;;;;;;;9.83;32.02;99531.00;5052554;28;20024;-37
2022/01/31 09:00:13;;;;;;;6.53;2.25;;;;;;;9.66;32.13;99520.75;5049599;28;20024;-38
2022/01/31 09:02:49;;;;;;;16.20;2.30;;;;;;;9.47;32.40;99514.38;5051419;28;20459;-38
2022/01/31 09:05:14;;;;;;;5.22;2.05;;;;;;;9.71;32.35;99517.47;5050655;28;20071;-38
2022/01/31 09:07:40;;;;;;;6.68;2.20;;;;;;;9.69;32.27;99511.53;5053038;28;20079;-38
2022/01/31 09:10:06;;;;;;;8.35;1.85;;;;;;;10.14;31.68;99522.41;5052437;28;20471;-37
2022/01/31 09:12:33;;;;;;;8.23;2.30;;;;;;;10.13;31.79;99524.25;5052573;28;20024;-38
2022/01/31 09:14:59;;;;;;;8.23;1.98;;;;;;;10.14;31.15;99517.88;5052254;28;20496;-38
2022/01/31 09:17:24;;;;;;;6.05;2.08;;;;;;;10.12;31.05;99516.47;5052806;28;20060;-37
2022/01/31 09:19:50;;;;;;;8.60;2.17;;;;;;;10.11;31.19;99515.66;5052381;28;20025;-38
2022/01/31 09:22:15;;;;;;;6.28;2.60;;;;;;;10.29;30.99;99506.22;5052275;28;20074;-38
2022/01/31 09:24:41;;;;;;;7.22;2.33;;;;;;;10.17;31.31;99500.72;5051514;28;20017;-37
2022/01/31 09:27:08;;;;;;;6.32;2.33;;;;;;;9.85;31.38;99494.41;5050734;28;20032;-37
2022/01/31 09:29:33;;;;;;;11.63;2.33;;;;;;;9.79;31.30;99491.53;5051769;28;20021;-37
2022/01/31 09:32:05;;;;;;;4.20;2.00;;;;;;;9.74;31.40;99483.34;5051614;28;20017;-38
2022/01/31 09:34:31;;;;;;;6.82;2.10;;;;;;;9.97;31.14;99466.16;5051953;28;20072;-37
2022/01/31 09:36:57;;;;;;;9.68;2.22;;;;;;;10.49;31.07;99474.28;5051721;28;20017;-38
2022/01/31 09:39:23;;;;;;;9.63;2.60;;;;;;;10.69;30.70;99460.91;5048937;28;20032;-38
2022/01/31 09:41:53;;;;;;;8.32;2.10;;;;;;;10.43;30.53;99453.81;5050375;28;20053;-38
2022/01/31 09:44:38;;;;;;;5.88;2.50;;;;;;;10.43;30.84;99456.50;5051825;28;20012;-37
2022/01/31 09:47:23;;;;;;;3.08;1.80;;;;;;;9.87;30.77;99442.66;5049215;28;20439;-38
2022/01/31 09:49:49;;;;;;;5.95;2.10;;;;;;;10.16;30.92;99433.41;5049785;28;20037;-38
2022/01/31 09:52:15;;;;;;;6.07;2.20;;;;;;;10.11;31.32;99414.63;5051467;28;20025;-38
2022/01/31 09:54:42;;;;;;;6.88;2.50;;;;;;;10.01;30.74;99430.16;5051375;28;20037;-38
2022/01/31 09:57:07;;;;;;;6.95;2.40;;;;;;;10.09;30.42;99426.47;5051878;28;20021;-38
2022/01/31 09:59:33;;;;;;;7.10;2.22;;;;;;;9.78;31.00;99412.00;5051249;28;20083;-38
2022/01/31 10:01:59;;;;;;;7.68;2.50;;;;;;;10.38;31.00;99414.56;5051249;28;20017;-37
2022/01/31 10:04:29;;;;;;;8.77;2.20;;;;;;;9.98;31.28;99407.47;5051575;28;20107;-37
2022/01/31 10:06:55;;;;;;;7.80;2.40;;;;;;;10.37;30.66;99408.41;5051066;28;20028;-37
2022/01/31 10:09:23;;;;;;;13.88;6.53;;;;;;;10.23;30.44;99398.81;5050823;28;20390;-38
2022/01/31 10:12:18;;;;;;;5.53;2.55;;;;;;;10.06;30.91;99403.78;5050553;28;20481;-38
2022/01/31 10:17:33;;;;;;;6.32;2.00;;;;;;;9.95;30.62;99399.91;5046383;28;20159;-37
2022/01/31 10:20:02;;;;;;;7.60;2.75;;;;;;;10.15;30.06;99381.25;5045702;28;20016;-37
2022/01/31 10:22:29;;;;;;;5.30;2.00;;;;;;;10.14;29.89;99384.94;5050908;28;20033;-38
2022/01/31 10:24:57;;;;;;;3.28;1.50;;;;;;;10.41;29.58;99379.56;5051451;28;20017;-38
2022/01/31 10:27:26;;;;;;;5.55;1.90;;;;;;;10.13;29.89;99370.03;5050747;28;20379;-38
2022/01/31 10:29:53;;;;;;;7.53;2.40;;;;;;;10.59;29.99;99368.22;5050995;28;20023;-37
2022/01/31 10:32:29;;;;;;;8.52;2.28;;;;;;;10.41;28.73;99357.47;5051219;28;20263;-38
2022/01/31 10:35:00;;;;;;;7.25;2.08;;;;;;;10.37;28.97;99357.06;5050088;28;20104;-37
2022/01/31 10:37:27;;;;;;;6.00;2.00;;;;;;;10.64;28.80;99348.94;5050878;28;20509;-37
2022/01/31 10:53:47;;;;;;;8.88;2.13;;;;;;;10.91;27.62;99299.84;5050205;28;20100;-37
2022/01/31 10:56:12;;;;;;;5.28;2.00;;;;;;;11.02;28.49;99277.03;5050455;28;20025;-37
2022/01/31 10:58:55;;;;;;;6.00;2.20;;;;;;;11.10;27.81;99292.75;5049512;28;20082;-37
2022/01/31 11:01:21;;;;;;;6.50;2.03;;;;;;;10.49;28.28;99293.38;5050959;28;20086;-38
2022/01/31 11:03:46;;;;;;;5.82;1.95;;;;;;;10.71;28.36;99276.03;5049152;28;20024;-38
2022/01/31 11:06:12;;;;;;;5.07;2.50;;;;;;;10.56;29.46;99263.03;5049979;28;20017;-39
2022/01/31 11:08:38;;;;;;;4.97;2.13;;;;;;;10.59;29.58;99263.66;5050233;28;20112;-38
2022/01/31 11:11:04;;;;;;;5.32;2.30;;;;;;;11.11;28.00;99246.41;5050526;28;20049;-38
2022/01/31 11:13:34;;;;;;;11.88;2.75;;;;;;;10.87;27.81;99249.91;5048966;28;20397;-37
2022/01/31 11:15:59;;;;;;;6.95;2.00;;;;;;;10.36;28.04;99255.19;5050544;28;20082;-38
2022/01/31 11:18:28;;;;;;;7.22;1.98;;;;;;;10.44;28.35;99250.66;5050858;28;20029;-38
2022/01/31 11:21:05;;;;;;;5.17;1.77;;;;;;;10.59;28.88;99235.19;5050473;28;20020;-38
2022/01/31 11:23:33;;;;;;;10.52;2.60;;;;;;;10.86;28.13;99222.47;5049073;28;20108;-38
2022/01/31 11:26:00;;;;;;;5.28;2.30;;;;;;;10.74;28.40;99221.56;5050478;28;20059;-38
2022/01/31 11:28:28;;;;;;;5.57;2.10;;;;;;;11.03;28.39;99208.63;5050439;28;20040;-38
2022/01/31 11:30:54;;;;;;;4.78;2.13;;;;;;;11.29;28.33;99207.53;5049008;28;20036;-39
2022/01/31 11:33:20;;;;;;;4.47;1.90;;;;;;;11.31;27.69;99206.28;5049997;28;20033;-38
2022/01/31 11:35:46;;;;;;;8.00;2.10;;;;;;;11.27;28.22;99199.78;5048921;28;20504;-38
2022/01/31 11:38:11;;;;;;;3.13;1.80;;;;;;;11.57;26.76;99196.34;5048591;28;20021;-38
2022/01/31 11:40:37;;;;;;;5.60;1.90;;;;;;;11.14;27.60;99189.28;5048938;28;20028;-38
2022/01/31 11:43:02;;;;;;;5.55;2.05;;;;;;;11.08;27.63;99190.13;5049009;28;20125;-38
2022/01/31 11:45:34;;;;;;;5.85;2.08;;;;;;;11.53;27.31;99188.00;5032464;28;20039;-38
2022/01/31 11:48:03;;;;;;;4.40;2.30;;;;;;;11.55;26.75;99182.44;5052411;28;20404;-38
2022/01/31 11:50:29;;;;;;;4.38;2.03;;;;;;;11.49;26.60;99172.69;5054724;28;20398;-38
2022/01/31 11:52:59;;;;;;;5.95;2.25;;;;;;;11.19;27.00;99176.09;5054613;28;20147;-38
2022/01/31 11:55:29;;;;;;;5.72;2.10;;;;;;;11.07;26.79;99169.88;5053242;28;20061;-38